Hlavní strana
METAR-TAF:

METAR-TAF

Letiště :

Majuro, Marshallovy ostrovy

zeměpisná šířka: 07-04N, zeměpisná délka: 171-17E, výška: 2 m

Aktuální stav počasí

Zpráva byla vytvořena před 3 hodinami a 5 minutami, v 09:52 UTC
Jižní vítr 6 kt
Teplota 29°C
Vlhkost vzduchu 74%
Tlak 1012 hPa
Viditelnost: 24.1 km
Skoro jasno ve výšce 1500 ft
Polojasno ve výšce 5000 ft
Oblačno až skoro zataženo ve výšce 30000 ft

METAR: PKMJ 150952Z 17006KT 15SM FEW015 SCT050 BKN300 29/24 A2987 RMK LAST

Čas: 00:57 (12:57 UTC)

Předpověď počasí

Zpráva byla vytvořena před 1 hodinou a 29 minutami, v 11:28 UTC
Předpověď platná od 15 v 12 UTC do 16 v 12 UTC
vítr z různých směrů 6 kt
Viditelnost: 10 km
Skoro jasno ve výšce 1500 ft
Polojasno ve výšce 5000 ft
přeháňky v blízkosti

TAF: PKMJ 151128Z 1512/1612 VRB06KT P6SM VCSH FEW015 SCT050

Stav a předpovědi počasí z více než 4 000 letišť (zprávy METAR a TAF).

Červené a žluté tečky na mapě představují dostupné meteorologické stanice.

Když kurzor umístíte na tečku, zobrazí se název stanice.

Pak kliknutím zobrazíte stav a předpověď počasí.

Chcete-li změnit mapu, kliknutím na zelené tlačítko se znaménkem +mapu přiblížíte, kliknutím na zelené tlačítko se znaménkem – mapu oddálíte a kliknutím na zelené šipky přejdete na sousední mapy.


METAR-TAF: